Time;durP1;ratioP1;P1;durP2;ratioP2;P2;SDS_P1;SDS_P2;PMS_P1;PMS_P2;Temp;Humidity;BMP_temperature;BMP_pressure;BME280_temperature;BME280_humidity;BME280_pressure;Samples;Min_cycle;Max_cycle;Signal;HPM_P1;HPM_P2
2021/04/01 00:01:57;;;;;;;17.60;10.95;;;18.90;50.10;;;;;;5027513;28;20033;-72
2021/04/01 00:04:22;;;;;;;16.88;10.40;;;18.80;50.40;;;;;;5022687;28;20026;-71
2021/04/01 00:06:48;;;;;;;17.15;10.57;;;18.80;50.50;;;;;;5012096;28;20030;-72
2021/04/01 00:09:13;;;;;;;19.15;12.05;;;18.90;50.60;;;;;;5018100;28;20111;-71
2021/04/01 00:11:39;;;;;;;15.70;10.80;;;18.80;50.70;;;;;;5031307;28;20160;-71
2021/04/01 00:14:05;;;;;;;17.45;10.85;;;18.90;50.90;;;;;;5020668;28;20056;-71
2021/04/01 00:16:32;;;;;;;16.45;10.73;;;18.90;50.90;;;;;;5016782;28;20387;-72
2021/04/01 00:18:58;;;;;;;16.48;10.70;;;18.80;51.00;;;;;;5013020;28;20411;-72
2021/04/01 00:21:23;;;;;;;14.75;10.32;;;18.80;51.00;;;;;;5021690;28;20038;-71
2021/04/01 00:23:49;;;;;;;18.20;11.32;;;18.80;51.00;;;;;;5030128;28;20041;-72
2021/04/01 00:26:14;;;;;;;16.85;10.95;;;18.80;51.10;;;;;;5029299;28;20025;-71
2021/04/01 00:28:40;;;;;;;16.20;10.77;;;18.80;50.70;;;;;;5028019;28;20030;-72
2021/04/01 00:31:06;;;;;;;17.08;11.45;;;18.70;50.70;;;;;;5010656;28;20026;-72
2021/04/01 00:33:31;;;;;;;17.40;11.20;;;18.70;50.40;;;;;;5018819;28;20064;-72
2021/04/01 00:35:57;;;;;;;17.23;10.90;;;18.70;49.90;;;;;;5030744;28;20040;-71
2021/04/01 00:38:22;;;;;;;16.38;10.63;;;18.70;49.90;;;;;;5030484;28;20025;-71
2021/04/01 00:40:48;;;;;;;18.40;10.98;;;18.70;49.70;;;;;;5031436;28;20083;-72
2021/04/01 00:43:13;;;;;;;17.20;11.40;;;18.80;49.50;;;;;;5015595;28;20026;-68
2021/04/01 00:45:39;;;;;;;18.73;11.48;;;18.80;48.80;;;;;;5011712;28;20018;-71
2021/04/01 00:48:05;;;;;;;19.67;12.25;;;18.80;48.10;;;;;;5025255;28;20041;-71
2021/04/01 00:50:31;;;;;;;20.00;11.85;;;18.80;48.20;;;;;;5031156;28;20457;-71
2021/04/01 00:52:58;;;;;;;17.30;11.35;;;18.70;47.70;;;;;;5018619;28;20036;-71
2021/04/01 00:55:24;;;;;;;20.75;12.38;;;18.70;47.70;;;;;;5011665;28;20065;-71
2021/04/01 00:57:52;;;;;;;18.05;11.60;;;18.70;47.50;;;;;;5028105;28;20039;-68
2021/04/01 01:00:22;;;;;;;18.00;12.00;;;18.70;47.30;;;;;;5029326;28;20132;-68
2021/04/01 01:02:47;;;;;;;19.35;11.68;;;18.60;47.20;;;;;;5012757;28;20487;-72
2021/04/01 01:05:14;;;;;;;18.23;10.93;;;18.70;47.20;;;;;;5020918;28;20036;-72
2021/04/01 01:07:40;;;;;;;20.35;11.70;;;18.60;46.70;;;;;;5028101;28;20026;-71
2021/04/01 01:10:12;;;;;;;19.10;11.80;;;18.60;46.80;;;;;;5022417;28;20029;-72
2021/04/01 01:12:39;;;;;;;18.48;11.48;;;18.70;46.50;;;;;;5029690;28;20124;-71
2021/04/01 01:15:07;;;;;;;20.25;11.60;;;18.60;46.00;;;;;;5022167;28;20034;-70
2021/04/01 01:17:33;;;;;;;20.15;11.90;;;18.70;46.10;;;;;;5017403;28;20036;-71
2021/04/01 01:20:00;;;;;;;20.20;12.10;;;18.70;46.30;;;;;;5029249;28;20041;-71
2021/04/01 01:22:26;;;;;;;20.88;11.90;;;18.60;46.30;;;;;;5021104;28;20026;-71
2021/04/01 01:24:52;;;;;;;17.90;11.07;;;18.60;46.50;;;;;;5017828;28;20028;-72
2021/04/01 01:27:19;;;;;;;16.38;9.98;;;18.60;46.90;;;;;;5014997;28;20025;-69
2021/04/01 01:29:47;;;;;;;16.48;10.25;;;18.60;47.40;;;;;;5030817;28;20026;-73
2021/04/01 01:32:17;;;;;;;17.10;10.18;;;18.60;47.70;;;;;;5015440;28;20053;-72
2021/04/01 01:34:44;;;;;;;15.35;9.98;;;18.60;47.80;;;;;;5027775;28;20025;-72
2021/04/01 01:37:10;;;;;;;17.50;10.68;;;18.60;47.80;;;;;;5034808;28;20040;-71
2021/04/01 01:39:36;;;;;;;20.20;10.90;;;18.60;48.00;;;;;;5022693;28;20026;-71
2021/04/01 01:42:03;;;;;;;17.95;10.15;;;18.70;47.90;;;;;;5024575;28;20055;-71
2021/04/01 01:44:29;;;;;;;15.30;9.68;;;18.70;48.00;;;;;;5034849;28;20446;-71
2021/04/01 01:46:54;;;;;;;16.17;10.60;;;18.60;47.90;;;;;;5021601;28;20115;-72
2021/04/01 01:49:20;;;;;;;18.92;11.30;;;18.60;48.00;;;;;;5014609;28;20065;-71
2021/04/01 01:51:45;;;;;;;19.05;11.20;;;18.60;47.80;;;;;;5025394;28;20040;-72
2021/04/01 01:54:11;;;;;;;19.75;11.25;;;18.60;47.60;;;;;;5020221;28;20045;-67
2021/04/01 01:56:38;;;;;;;18.10;11.18;;;18.60;47.50;;;;;;5020808;28;20441;-71
2021/04/01 01:59:06;;;;;;;18.45;11.70;;;18.50;47.50;;;;;;5032492;28;20484;-72
2021/04/01 02:01:32;;;;;;;18.70;11.85;;;18.60;47.40;;;;;;5020780;28;20037;-70
2021/04/01 02:04:04;;;;;;;17.77;11.90;;;18.50;47.10;;;;;;5013069;28;20021;-70
2021/04/01 02:06:30;;;;;;;18.58;11.60;;;18.50;46.90;;;;;;5014870;28;20057;-70
2021/04/01 02:09:00;;;;;;;18.58;11.70;;;18.50;46.80;;;;;;5032169;28;20065;-69
2021/04/01 02:11:27;;;;;;;17.38;10.90;;;18.50;46.90;;;;;;5022760;28;20387;-71
2021/04/01 02:13:54;;;;;;;19.25;11.85;;;18.50;46.80;;;;;;5013156;28;20103;-71
2021/04/01 02:16:20;;;;;;;18.88;12.02;;;18.50;46.70;;;;;;5031709;28;20136;-71
2021/04/01 02:18:45;;;;;;;22.08;13.50;;;18.50;46.50;;;;;;5030053;28;20041;-71
2021/04/01 02:21:13;;;;;;;20.77;12.77;;;18.50;46.30;;;;;;5028625;28;20060;-69
2021/04/01 02:23:39;;;;;;;19.75;11.95;;;18.50;46.50;;;;;;5014415;28;20507;-72
2021/04/01 02:26:05;;;;;;;20.50;12.25;;;18.50;46.50;;;;;;5022412;28;20052;-69
2021/04/01 02:28:33;;;;;;;20.02;12.60;;;18.50;46.80;;;;;;5029283;28;20033;-72
2021/04/01 02:31:04;;;;;;;20.27;11.07;;;18.50;46.90;;;;;;5032065;28;20030;-70
2021/04/01 02:33:33;;;;;;;19.17;11.20;;;18.50;47.10;;;;;;5014063;28;20037;-72
2021/04/01 02:35:59;;;;;;;16.35;10.48;;;18.40;47.50;;;;;;5014074;28;20391;-71
2021/04/01 02:38:25;;;;;;;18.10;10.32;;;18.40;47.90;;;;;;5031444;28;20035;-71
2021/04/01 02:40:52;;;;;;;15.63;9.43;;;18.40;48.50;;;;;;5027845;28;20029;-72
2021/04/01 02:45:52;;;;;;;15.57;9.82;;;18.40;48.70;;;;;;5013752;28;20088;-71
2021/04/01 02:48:18;;;;;;;16.65;10.30;;;18.40;49.00;;;;;;5030925;28;20505;-70
2021/04/01 02:50:43;;;;;;;18.02;11.07;;;18.40;49.10;;;;;;5032073;28;20495;-71
2021/04/01 02:53:10;;;;;;;16.95;10.50;;;18.40;49.00;;;;;;5024514;28;20029;-71
2021/04/01 02:55:35;;;;;;;15.50;9.90;;;18.40;49.00;;;;;;5024533;28;20021;-71
2021/04/01 02:58:01;;;;;;;16.00;10.23;;;18.40;49.40;;;;;;5031636;28;20432;-68
2021/04/01 03:00:29;;;;;;;16.15;9.35;;;18.40;49.80;;;;;;5015996;28;20502;-70
2021/04/01 03:03:04;;;;;;;15.10;9.63;;;18.40;49.90;;;;;;5029114;28;20073;-72
2021/04/01 03:05:30;;;;;;;17.92;9.93;;;18.40;50.10;;;;;;5032772;28;20022;-71
2021/04/01 03:07:55;;;;;;;15.95;9.70;;;18.40;50.00;;;;;;5023861;28;20037;-69
2021/04/01 03:10:21;;;;;;;15.50;9.73;;;18.40;49.80;;;;;;5028814;28;20028;-68
2021/04/01 03:12:46;;;;;;;14.63;9.48;;;18.40;49.90;;;;;;5025325;28;20411;-71
2021/04/01 03:15:12;;;;;;;17.23;9.40;;;18.30;50.20;;;;;;5016947;28;20025;-72
2021/04/01 03:17:39;;;;;;;15.20;9.35;;;18.30;50.40;;;;;;5032254;28;20026;-71
2021/04/01 03:20:06;;;;;;;14.68;9.13;;;18.40;50.70;;;;;;5032338;28;20021;-69
2021/04/01 03:22:31;;;;;;;15.40;9.15;;;18.30;50.80;;;;;;5013929;28;20034;-71
2021/04/01 03:24:57;;;;;;;16.38;9.70;;;18.30;51.30;;;;;;5028559;28;20108;-72
2021/04/01 03:27:23;;;;;;;14.48;9.23;;;18.40;51.30;;;;;;5029501;28;20032;-72
2021/04/01 03:30:05;;;;;;;15.07;9.13;;;18.40;51.30;;;;;;5030858;28;20055;-70
2021/04/01 03:32:36;;;;;;;14.07;8.88;;;18.30;51.20;;;;;;5029741;28;20029;-72
2021/04/01 03:35:03;;;;;;;15.88;8.95;;;18.40;51.30;;;;;;5025802;28;20032;-70
2021/04/01 03:37:29;;;;;;;14.48;9.00;;;18.30;51.40;;;;;;5011151;28;20129;-71
2021/04/01 03:39:54;;;;;;;13.20;9.05;;;18.30;51.50;;;;;;5015089;28;20635;-67
2021/04/01 03:42:20;;;;;;;14.80;8.68;;;18.30;51.60;;;;;;5019301;28;20033;-69
2021/04/01 03:44:46;;;;;;;14.07;8.90;;;18.30;51.50;;;;;;5013122;28;20066;-71
2021/04/01 03:47:12;;;;;;;14.65;9.13;;;18.30;51.40;;;;;;5025205;28;20079;-71
2021/04/01 03:49:38;;;;;;;15.93;10.38;;;18.40;51.40;;;;;;5025219;28;20533;-68
2021/04/01 03:52:04;;;;;;;17.48;11.45;;;18.30;51.10;;;;;;5018365;28;20577;-69
2021/04/01 03:54:29;;;;;;;19.05;12.15;;;18.30;50.80;;;;;;5030472;28;20034;-70
2021/04/01 03:56:55;;;;;;;21.13;12.60;;;18.30;50.60;;;;;;5032214;28;20029;-71
2021/04/01 03:59:25;;;;;;;19.30;12.15;;;18.30;50.40;;;;;;5024335;28;20030;-70
2021/04/01 04:02:10;;;;;;;20.35;12.48;;;18.30;50.40;;;;;;5011020;28;20053;-72
2021/04/01 04:04:50;;;;;;;22.92;13.55;;;18.30;50.30;;;;;;5017797;28;20057;-70
2021/04/01 04:07:55;;;;;;;22.73;12.43;;;18.30;50.00;;;;;;5011278;28;20022;-70
2021/04/01 04:15:30;;;;;;;17.80;11.63;;;18.20;50.50;;;;;;5020932;28;20446;-71
2021/04/01 04:17:56;;;;;;;19.77;11.48;;;18.20;50.50;;;;;;5027290;28;20338;-71
2021/04/01 04:20:21;;;;;;;16.15;10.32;;;18.20;50.70;;;;;;5015054;28;20086;-70
2021/04/01 04:22:50;;;;;;;18.67;11.02;;;18.20;51.10;;;;;;5024038;28;20045;-71
2021/04/01 04:25:16;;;;;;;18.60;11.38;;;18.30;51.40;;;;;;5023593;28;20018;-70
2021/04/01 04:30:27;;;;;;;17.25;11.02;;;18.20;51.80;;;;;;5013282;28;20040;-70
2021/04/01 04:32:53;;;;;;;19.80;11.40;;;18.30;51.90;;;;;;5023679;28;20486;-70
2021/04/01 04:35:19;;;;;;;17.73;10.68;;;18.30;51.90;;;;;;5024066;28;20029;-70
2021/04/01 04:37:45;;;;;;;19.27;11.18;;;18.20;51.80;;;;;;5021683;28;20030;-68
2021/04/01 04:40:11;;;;;;;18.23;11.52;;;18.20;52.00;;;;;;5023459;28;20087;-71
2021/04/01 04:42:37;;;;;;;19.30;12.45;;;18.20;51.90;;;;;;5022949;28;20495;-71
2021/04/01 04:45:07;;;;;;;22.80;13.00;;;18.20;51.90;;;;;;5015802;28;20051;-69
2021/04/01 04:47:33;;;;;;;20.38;12.73;;;18.20;51.80;;;;;;5019451;28;20049;-70
2021/04/01 04:49:59;;;;;;;21.25;13.18;;;18.20;51.90;;;;;;5024388;28;20034;-71
2021/04/01 04:52:25;;;;;;;21.58;13.45;;;18.20;51.70;;;;;;5021764;28;20017;-71
2021/04/01 04:54:51;;;;;;;21.92;13.50;;;18.20;51.80;;;;;;5023758;28;20076;-71
2021/04/01 04:57:22;;;;;;;22.98;13.82;;;18.30;51.70;;;;;;5009230;28;20088;-68
2021/04/01 05:05:16;;;;;;;21.17;12.23;;;18.30;53.30;;;;;;5019643;28;20549;-70
2021/04/01 05:07:41;;;;;;;20.00;12.68;;;18.40;53.60;;;;;;5011462;28;20029;-71
2021/04/01 05:10:07;;;;;;;23.45;12.32;;;18.30;53.20;;;;;;5023131;28;20056;-68
2021/04/01 05:12:33;;;;;;;21.00;12.65;;;18.30;53.20;;;;;;5017955;28;20057;-71
2021/04/01 05:14:58;;;;;;;26.27;13.95;;;18.40;53.40;;;;;;5020144;28;20444;-71
2021/04/01 05:17:24;;;;;;;25.85;15.48;;;18.40;53.20;;;;;;5025163;28;20038;-70
2021/04/01 05:19:55;;;;;;;29.17;18.02;;;18.40;52.60;;;;;;5025191;28;20109;-74
2021/04/01 05:22:42;;;;;;;32.60;16.75;;;18.40;51.80;;;;;;5024415;28;20467;-71
2021/04/01 05:25:10;;;;;;;34.13;21.70;;;18.60;52.70;;;;;;5012105;28;20462;-69
2021/04/01 05:27:56;;;;;;;32.83;20.25;;;18.40;51.10;;;;;;5023890;28;20144;-69
2021/04/01 05:30:22;;;;;;;32.65;20.98;;;18.40;51.10;;;;;;5024349;28;20025;-69
2021/04/01 05:32:47;;;;;;;31.60;20.17;;;18.40;51.00;;;;;;5023669;28;20029;-70
2021/04/01 05:35:15;;;;;;;40.78;22.08;;;18.40;50.90;;;;;;5019754;28;20076;-69
2021/04/01 05:37:41;;;;;;;35.17;18.23;;;18.50;50.70;;;;;;5005845;28;20030;-69
2021/04/01 05:40:09;;;;;;;30.15;18.02;;;18.50;51.20;;;;;;5023466;28;20086;-70
2021/04/01 05:42:39;;;;;;;28.65;17.00;;;18.50;51.60;;;;;;5024914;28;20523;-70
2021/04/01 05:47:51;;;;;;;28.38;14.48;;;18.50;52.60;;;;;;5024138;28;20029;-68
2021/04/01 05:58:11;;;;;;;25.08;13.95;;;18.40;53.80;;;;;;5017843;28;20030;-70
2021/04/01 06:03:53;;;;;;;23.67;14.50;;;18.40;53.10;;;;;;5018398;28;20482;-70
2021/04/01 06:06:31;;;;;;;25.65;14.40;;;18.40;53.70;;;;;;5019775;28;20045;-71
2021/04/01 06:09:02;;;;;;;31.55;17.98;;;18.40;53.10;;;;;;5027170;28;20033;-68
2021/04/01 06:11:27;;;;;;;33.67;15.77;;;18.40;52.40;;;;;;5023536;28;20041;-73
2021/04/01 06:16:38;;;;;;;26.73;14.20;;;18.50;54.10;;;;;;5026412;28;20546;-66
2021/04/01 06:19:12;;;;;;;23.98;13.13;;;18.50;53.70;;;;;;5026647;28;20423;-70
2021/04/01 06:21:46;;;;;;;22.42;12.60;;;18.50;53.80;;;;;;5026062;28;20368;-69
2021/04/01 06:24:26;;;;;;;22.50;12.95;;;18.50;53.80;;;;;;5028552;28;20021;-67
2021/04/01 06:27:14;;;;;;;30.60;14.43;;;18.50;53.80;;;;;;5028317;28;20025;-70
2021/04/01 06:30:11;;;;;;;25.17;14.43;;;18.50;53.00;;;;;;5027022;28;20279;-69
2021/04/01 06:32:30;;;;;;;28.65;13.90;;;18.50;52.80;;;;;;5027542;28;20061;-69
2021/04/01 06:34:56;;;;;;;28.45;18.50;;;18.60;52.50;;;;;;5026890;28;20025;-68
2021/04/01 06:40:12;;;;;;;28.45;16.73;;;18.60;51.60;;;;;;4981411;28;20053;-71
2021/04/01 06:42:58;;;;;;;37.63;23.25;;;18.50;51.60;;;;;;5024035;28;20391;-69
2021/04/01 06:45:27;;;;;;;29.08;16.27;;;18.60;51.60;;;;;;5025921;28;20022;-69
2021/04/01 06:47:56;;;;;;;36.63;21.92;;;18.60;51.80;;;;;;5022350;28;20033;-71
2021/04/01 06:50:45;;;;;;;29.25;16.90;;;18.50;51.10;;;;;;5021009;28;20026;-67
2021/04/01 06:53:19;;;;;;;32.22;19.33;;;18.60;52.90;;;;;;5017393;28;20148;-70
2021/04/01 06:56:10;;;;;;;31.42;16.45;;;18.60;52.00;;;;;;5014563;28;20036;-70
2021/04/01 06:58:54;;;;;;;34.45;20.52;;;18.70;51.90;;;;;;5027019;28;20249;-71
2021/04/01 07:01:40;;;;;;;35.67;21.27;;;18.70;50.90;;;;;;5031732;28;20503;-69
2021/04/01 07:04:07;;;;;;;37.75;21.73;;;18.70;50.50;;;;;;5031523;28;20028;-71
2021/04/01 07:06:38;;;;;;;32.85;18.75;;;18.70;50.70;;;;;;5031478;28;20499;-68
2021/04/01 07:09:32;;;;;;;29.48;16.63;;;18.70;51.40;;;;;;5031409;28;20049;-66
2021/04/01 07:12:13;;;;;;;27.85;17.85;;;18.70;52.60;;;;;;5033186;28;20036;-68
2021/04/01 07:14:42;;;;;;;31.00;17.92;;;18.70;52.80;;;;;;5031440;28;20025;-69
2021/04/01 07:17:16;;;;;;;28.00;16.77;;;18.70;52.50;;;;;;5032899;28;20056;-71
2021/04/01 07:22:34;;;;;;;24.48;15.52;;;18.80;52.90;;;;;;5013150;28;20025;-69
2021/04/01 07:47:24;;;;;;;23.27;14.88;;;18.80;53.20;;;;;;5012813;28;20033;-67
2021/04/01 07:49:52;;;;;;;24.70;16.00;;;18.80;53.20;;;;;;5011091;28;20032;-67
2021/04/01 07:52:22;;;;;;;25.15;15.55;;;18.80;53.00;;;;;;5011302;28;20026;-71
2021/04/01 08:00:53;;;;;;;24.70;15.55;;;18.90;53.00;;;;;;5012269;28;20096;-67
2021/04/01 08:06:27;;;;;;;26.95;17.13;;;19.00;53.00;;;;;;5012662;28;20030;-71
2021/04/01 08:09:07;;;;;;;28.10;17.02;;;19.00;52.90;;;;;;5010275;28;20081;-70
2021/04/01 08:11:38;;;;;;;24.75;15.93;;;19.10;52.90;;;;;;5012270;28;20462;-71
2021/04/01 08:14:22;;;;;;;23.55;16.42;;;19.20;52.40;;;;;;5010883;28;20081;-71
2021/04/01 08:17:40;;;;;;;25.25;17.38;;;19.30;52.00;;;;;;5012112;28;20065;-67
2021/04/01 08:19:39;;;;;;;23.73;17.20;;;19.30;51.70;;;;;;5005816;28;20044;-70
2021/04/01 08:22:12;;;;;;;24.08;17.38;;;19.30;51.70;;;;;;5031605;28;20399;-70
2021/04/01 08:24:47;;;;;;;25.65;17.90;;;19.30;51.40;;;;;;5031806;28;20083;-66
2021/04/01 08:35:29;;;;;;;23.33;16.73;;;19.60;50.90;;;;;;5031827;28;20446;-67
2021/04/01 08:38:13;;;;;;;24.98;17.48;;;19.70;50.90;;;;;;5029966;28;20052;-66
2021/04/01 08:40:41;;;;;;;23.63;16.80;;;19.70;50.50;;;;;;5031512;28;20100;-70
2021/04/01 08:43:43;;;;;;;22.98;16.25;;;19.70;50.40;;;;;;5030169;28;20116;-69
2021/04/01 08:46:30;;;;;;;21.88;15.20;;;19.80;50.20;;;;;;5029983;28;20557;-71
2021/04/01 08:49:20;;;;;;;20.92;16.40;;;19.90;50.20;;;;;;5029780;28;20267;-71
2021/04/01 08:52:15;;;;;;;23.63;16.63;;;19.90;50.10;;;;;;5031350;28;20355;-67
2021/04/01 08:54:46;;;;;;;23.15;16.95;;;19.90;50.00;;;;;;5029973;28;20571;-72
2021/04/01 08:57:24;;;;;;;27.40;18.23;;;19.90;50.20;;;;;;5031190;28;20033;-71
2021/04/01 09:00:09;;;;;;;23.48;17.05;;;20.00;50.20;;;;;;5030943;28;20029;-71
2021/04/01 09:02:36;;;;;;;25.55;17.92;;;20.10;49.20;;;;;;5031186;28;20025;-71
2021/04/01 09:05:05;;;;;;;24.20;17.08;;;20.10;49.90;;;;;;5030984;28;20018;-67
2021/04/01 09:07:48;;;;;;;21.85;16.08;;;20.20;49.40;;;;;;5030617;28;20021;-71
2021/04/01 09:10:30;;;;;;;24.23;17.70;;;20.20;49.40;;;;;;5030834;28;20033;-71
2021/04/01 09:13:12;;;;;;;25.38;18.23;;;20.20;49.40;;;;;;5031022;28;20036;-71
2021/04/01 09:15:48;;;;;;;21.45;16.65;;;20.30;49.10;;;;;;5031146;28;20482;-68
2021/04/01 09:18:28;;;;;;;24.27;17.58;;;20.30;49.10;;;;;;5029442;28;20052;-69
2021/04/01 09:20:58;;;;;;;23.38;17.42;;;20.30;48.90;;;;;;5030864;28;20071;-71
2021/04/01 09:23:39;;;;;;;22.92;16.92;;;20.40;49.10;;;;;;5031042;28;20018;-71
2021/04/01 09:26:06;;;;;;;24.85;18.23;;;20.40;48.80;;;;;;5030958;28;20535;-72
2021/04/01 09:28:43;;;;;;;24.17;17.48;;;20.40;48.90;;;;;;5030546;28;20116;-68
2021/04/01 09:31:11;;;;;;;27.67;18.67;;;20.40;48.90;;;;;;5030957;28;20025;-70
2021/04/01 09:33:39;;;;;;;25.90;19.13;;;20.50;48.80;;;;;;5030852;28;20030;-69
2021/04/01 09:36:22;;;;;;;23.63;18.25;;;20.50;48.60;;;;;;5030970;28;20197;-70
2021/04/01 09:38:53;;;;;;;24.33;17.45;;;20.60;48.50;;;;;;5033059;28;20026;-70
2021/04/01 09:41:30;;;;;;;23.75;17.63;;;20.60;48.60;;;;;;5033488;28;20040;-70
2021/04/01 09:43:56;;;;;;;24.33;18.27;;;20.60;48.30;;;;;;5034568;28;20026;-70
2021/04/01 09:46:22;;;;;;;24.70;18.48;;;20.60;48.30;;;;;;5033438;28;20378;-71
2021/04/01 09:49:03;;;;;;;23.95;19.02;;;20.70;48.10;;;;;;5033261;28;20587;-70
2021/04/01 09:51:32;;;;;;;27.10;19.17;;;20.70;47.90;;;;;;5033414;28;20055;-70
2021/04/01 09:53:59;;;;;;;25.23;19.60;;;20.70;47.70;;;;;;5033183;28;20033;-71
2021/04/01 09:56:29;;;;;;;24.85;19.08;;;20.70;47.80;;;;;;5033277;28;20025;-71
2021/04/01 09:58:55;;;;;;;26.35;20.05;;;20.80;47.90;;;;;;5034178;28;20032;-70
2021/04/01 10:01:36;;;;;;;28.88;21.52;;;20.80;47.80;;;;;;5034377;28;20108;-70
2021/04/01 10:04:07;;;;;;;28.38;21.33;;;20.70;47.90;;;;;;5034647;28;20022;-71
2021/04/01 10:06:40;;;;;;;29.02;22.65;;;20.80;47.70;;;;;;5032489;28;20028;-67
2021/04/01 10:09:15;;;;;;;29.38;22.90;;;20.80;47.70;;;;;;5034072;28;20017;-71
2021/04/01 10:11:44;;;;;;;30.35;23.25;;;20.80;47.60;;;;;;5033005;28;20060;-70
2021/04/01 10:14:12;;;;;;;31.35;23.63;;;20.80;47.60;;;;;;5032888;28;20037;-71
2021/04/01 10:16:57;;;;;;;32.65;25.30;;;20.80;47.60;;;;;;5033133;28;20022;-69
2021/04/01 10:19:33;;;;;;;31.63;23.10;;;20.90;47.50;;;;;;5033756;28;20021;-68
2021/04/01 10:21:58;;;;;;;33.13;24.27;;;20.90;47.50;;;;;;5034007;28;20025;-71
2021/04/01 10:24:37;;;;;;;30.80;22.92;;;20.90;47.30;;;;;;5033904;28;20028;-69
2021/04/01 10:29:57;;;;;;;30.80;24.65;;;21.00;47.20;;;;;;5033557;28;20065;-68
2021/04/01 10:32:32;;;;;;;33.92;25.80;;;21.00;47.10;;;;;;5033815;28;20021;-70
2021/04/01 10:35:07;;;;;;;34.13;25.48;;;21.00;47.10;;;;;;5033711;28;20036;-71
2021/04/01 10:37:33;;;;;;;33.35;25.30;;;21.10;46.90;;;;;;5033695;28;20060;-67
2021/04/01 10:40:01;;;;;;;34.83;26.52;;;21.10;46.80;;;;;;5033266;28;20029;-71
2021/04/01 10:42:31;;;;;;;32.92;25.55;;;21.10;46.50;;;;;;5033709;28;20116;-70
2021/04/01 10:45:12;;;;;;;36.30;26.35;;;21.10;46.80;;;;;;5033632;28;20062;-67
2021/04/01 10:47:57;;;;;;;34.65;26.95;;;21.20;46.80;;;;;;5032242;28;20690;-67
2021/04/01 10:50:26;;;;;;;38.63;28.42;;;21.20;46.60;;;;;;5031323;28;20025;-71
2021/04/01 10:52:54;;;;;;;34.75;27.10;;;21.20;46.30;;;;;;5032169;28;20112;-70
2021/04/01 10:55:24;;;;;;;35.67;27.63;;;21.20;46.50;;;;;;5033338;28;20099;-71
2021/04/01 10:57:50;;;;;;;36.47;28.27;;;21.20;46.50;;;;;;5033305;28;20487;-71
2021/04/01 11:00:16;;;;;;;37.47;29.25;;;21.20;46.40;;;;;;5031970;28;20279;-71
2021/04/01 11:02:58;;;;;;;40.58;30.60;;;21.30;46.40;;;;;;5031775;28;20033;-70
2021/04/01 11:05:25;;;;;;;36.00;27.25;;;21.30;46.40;;;;;;5033429;28;20032;-70
2021/04/01 11:08:00;;;;;;;36.40;28.63;;;21.30;46.40;;;;;;5032597;28;20021;-70
2021/04/01 11:10:29;;;;;;;37.75;29.55;;;21.40;46.30;;;;;;5033087;28;20060;-71
2021/04/01 11:12:59;;;;;;;36.22;27.88;;;21.40;46.10;;;;;;5033043;28;20037;-66
2021/04/01 11:15:30;;;;;;;37.00;28.00;;;21.40;46.00;;;;;;5033154;28;20482;-71
2021/04/01 11:18:14;;;;;;;36.78;27.98;;;21.40;46.10;;;;;;5031647;28;20124;-69
2021/04/01 11:20:41;;;;;;;40.75;30.00;;;21.40;45.80;;;;;;5031558;28;20041;-70
2021/04/01 11:23:14;;;;;;;37.95;29.15;;;21.40;46.20;;;;;;5031410;28;20479;-70
2021/04/01 11:25:47;;;;;;;39.70;29.15;;;21.50;46.50;;;;;;5031708;28;20117;-71
2021/04/01 11:28:13;;;;;;;37.33;27.80;;;21.50;45.90;;;;;;5032394;28;20029;-68
2021/04/01 11:30:47;;;;;;;35.75;27.35;;;21.50;45.70;;;;;;5031476;28;20112;-70
2021/04/01 11:33:14;;;;;;;36.28;27.08;;;21.60;45.70;;;;;;5032624;28;20031;-71
2021/04/01 11:35:43;;;;;;;37.85;26.70;;;21.60;45.50;;;;;;5031267;28;20025;-70
2021/04/01 11:38:23;;;;;;;33.47;24.73;;;21.60;45.50;;;;;;5032258;28;20025;-70
2021/04/01 11:40:57;;;;;;;32.28;24.63;;;21.60;45.40;;;;;;5031277;28;20056;-67
2021/04/01 11:43:31;;;;;;;32.05;23.63;;;21.60;45.50;;;;;;5032580;28;20018;-69
2021/04/01 11:45:58;;;;;;;32.65;23.95;;;21.60;45.50;;;;;;5032533;28;20024;-71
2021/04/01 11:48:24;;;;;;;30.85;23.13;;;21.60;45.40;;;;;;5031923;28;20028;-71
2021/04/01 11:50:52;;;;;;;30.88;21.20;;;21.60;45.40;;;;;;5031051;28;20372;-70
2021/04/01 11:53:17;;;;;;;28.33;21.73;;;21.70;45.20;;;;;;5032260;28;20030;-70
2021/04/01 11:55:51;;;;;;;25.25;19.42;;;21.70;45.20;;;;;;5032319;28;20092;-70
2021/04/01 11:58:17;;;;;;;26.70;19.15;;;21.70;45.00;;;;;;5030708;28;20021;-70
2021/04/01 12:00:43;;;;;;;26.13;17.83;;;21.70;45.00;;;;;;5032363;28;20467;-67
2021/04/01 12:03:24;;;;;;;23.05;16.77;;;21.80;44.90;;;;;;5031837;28;20018;-68
2021/04/01 12:05:51;;;;;;;23.15;16.27;;;21.70;45.00;;;;;;5030868;28;20545;-69
2021/04/01 12:08:17;;;;;;;21.73;14.93;;;21.80;44.90;;;;;;5031160;28;20475;-71
2021/04/01 12:10:53;;;;;;;22.75;15.05;;;21.80;44.90;;;;;;5032403;28;20048;-71
2021/04/01 12:13:20;;;;;;;18.40;12.75;;;21.80;44.80;;;;;;5032223;28;20083;-71
2021/04/01 12:15:46;;;;;;;18.67;13.02;;;21.80;44.60;;;;;;5032044;28;20017;-70
2021/04/01 12:18:11;;;;;;;20.75;12.57;;;21.80;44.50;;;;;;5031695;28;20028;-71
2021/04/01 12:20:38;;;;;;;17.02;11.13;;;21.70;44.70;;;;;;5031715;28;20476;-69
2021/04/01 12:23:21;;;;;;;15.85;11.10;;;21.50;45.30;;;;;;5030537;28;20498;-70
2021/04/01 12:26:02;;;;;;;15.70;10.10;;;21.60;45.40;;;;;;5031969;28;20112;-66
2021/04/01 12:28:28;;;;;;;17.67;10.52;;;21.30;45.90;;;;;;5031285;28;20172;-69
2021/04/01 12:30:55;;;;;;;15.30;9.93;;;21.10;46.30;;;;;;5031717;28;20033;-71
2021/04/01 12:33:22;;;;;;;15.23;9.13;;;20.90;47.00;;;;;;5030223;28;20535;-70
2021/04/01 12:35:57;;;;;;;14.93;8.43;;;20.90;47.20;;;;;;5030258;28;20095;-71
2021/04/01 12:38:28;;;;;;;15.15;8.02;;;20.90;46.90;;;;;;5031554;28;20032;-70
2021/04/01 12:40:54;;;;;;;13.90;7.65;;;21.00;47.10;;;;;;5031404;28;20125;-70
2021/04/01 12:43:19;;;;;;;13.88;6.80;;;20.90;46.80;;;;;;5030215;28;20120;-70
2021/04/01 12:45:53;;;;;;;12.15;6.75;;;20.80;47.20;;;;;;5030169;28;20100;-70
2021/04/01 12:48:19;;;;;;;11.75;6.30;;;20.80;47.30;;;;;;5030886;28;20430;-70
2021/04/01 12:50:48;;;;;;;10.57;5.93;;;21.20;46.30;;;;;;5031391;28;20025;-69
2021/04/01 12:53:17;;;;;;;10.95;5.97;;;21.50;45.30;;;;;;5030075;28;20025;-70
2021/04/01 12:58:20;;;;;;;10.55;5.40;;;21.30;45.70;;;;;;5031039;28;20075;-67
2021/04/01 13:00:50;;;;;;;10.93;5.22;;;21.40;45.60;;;;;;5047725;28;20038;-67
2021/04/01 13:03:16;;;;;;;9.23;4.90;;;21.60;45.20;;;;;;5031330;28;20036;-70
2021/04/01 13:05:45;;;;;;;10.70;4.63;;;21.60;45.00;;;;;;5031138;28;20475;-70
2021/04/01 13:10:43;;;;;;;9.98;4.40;;;21.60;45.30;;;;;;5031233;28;20029;-70
2021/04/01 13:13:09;;;;;;;7.40;3.63;;;21.30;45.90;;;;;;5030873;28;20029;-70
2021/04/01 13:15:36;;;;;;;10.23;4.35;;;21.00;46.80;;;;;;5029842;28;20072;-66
2021/04/01 13:18:01;;;;;;;8.15;3.85;;;20.80;47.40;;;;;;5030920;28;20100;-68
2021/04/01 13:20:27;;;;;;;9.05;3.80;;;20.60;47.80;;;;;;5030783;28;20075;-70
2021/04/01 13:25:31;;;;;;;8.00;3.22;;;20.30;48.60;;;;;;5031283;28;20471;-71
2021/04/01 13:28:04;;;;;;;9.55;3.15;;;20.30;49.20;;;;;;5030710;28;20124;-71
2021/04/01 13:30:31;;;;;;;10.43;3.13;;;20.30;48.90;;;;;;5031042;28;20021;-70
2021/04/01 13:38:16;;;;;;;16.98;3.50;;;20.30;48.90;;;;;;5012164;28;19916;-71
2021/04/01 13:40:44;;;;;;;17.83;3.22;;;20.20;49.60;;;;;;5016952;28;20026;-70
2021/04/01 13:43:12;;;;;;;13.60;3.10;;;20.40;49.20;;;;;;5026543;28;20036;-70
2021/04/01 13:45:39;;;;;;;15.70;2.90;;;20.30;48.80;;;;;;5011122;28;20025;-71
2021/04/01 13:48:08;;;;;;;13.02;2.85;;;20.20;49.30;;;;;;5009635;28;20116;-72
2021/04/01 13:50:37;;;;;;;12.93;3.00;;;20.30;49.00;;;;;;5018804;28;20030;-71
2021/04/01 13:53:24;;;;;;;10.70;2.75;;;20.30;49.20;;;;;;5020373;28;20033;-68
2021/04/01 13:56:03;;;;;;;8.07;2.25;;;20.30;49.30;;;;;;5020325;28;20026;-70
2021/04/01 14:09:33;;;;;;;7.85;2.15;;;20.10;49.40;;;;;;5030411;28;20032;-69
2021/04/01 14:12:00;;;;;;;9.45;2.15;;;20.10;49.60;;;;;;5030868;28;20035;-70
2021/04/01 14:14:27;;;;;;;6.97;1.80;;;20.10;49.50;;;;;;5029475;28;20033;-69
2021/04/01 14:16:57;;;;;;;7.53;1.80;;;20.10;49.60;;;;;;5030891;28;20231;-69
2021/04/01 14:19:24;;;;;;;7.18;2.08;;;20.00;49.50;;;;;;5026234;28;20064;-69
2021/04/01 14:21:56;;;;;;;6.38;1.98;;;20.00;49.60;;;;;;5010754;28;20034;-69
2021/04/01 14:24:27;;;;;;;8.50;1.83;;;20.00;49.60;;;;;;5010964;28;20029;-70
2021/04/01 14:29:29;;;;;;;6.38;2.00;;;20.00;49.60;;;;;;5014320;28;20484;-70
2021/04/01 14:31:55;;;;;;;5.18;1.75;;;19.90;49.60;;;;;;5013090;28;20034;-69
2021/04/01 14:34:23;;;;;;;6.25;2.00;;;19.90;49.60;;;;;;5021394;28;20052;-68